createdAt,value
2022-12-24T00:00:13.270Z,361.50
2022-12-24T00:01:13.276Z,362.70
2022-12-24T00:02:13.377Z,358.34
2022-12-24T00:03:13.652Z,353.71
2022-12-24T00:04:13.641Z,357.56
2022-12-24T00:05:13.791Z,354.85
2022-12-24T00:06:13.848Z,356.78
2022-12-24T00:07:14.026Z,358.34
2022-12-24T00:08:14.107Z,357.17
2022-12-24T00:09:14.238Z,357.17
2022-12-24T00:10:14.330Z,353.33
2022-12-24T00:11:14.469Z,355.62
2022-12-24T00:12:14.704Z,355.62
2022-12-24T00:13:14.765Z,355.24
2022-12-24T00:14:14.884Z,352.95
2022-12-24T00:15:15.012Z,351.43
2022-12-24T00:16:15.174Z,352.95
2022-12-24T00:17:15.426Z,357.56
2022-12-24T00:18:15.459Z,359.13
2022-12-24T00:19:15.622Z,351.06
2022-12-24T00:20:15.682Z,335.27
2022-12-24T00:21:15.921Z,334.93
2022-12-24T00:22:15.922Z,330.55
2022-12-24T00:23:16.062Z,327.58
2022-12-24T00:24:16.249Z,322.11
2022-12-24T00:25:16.347Z,325.62
2022-12-24T00:26:16.492Z,328.23
2022-12-24T00:27:16.603Z,332.22
2022-12-24T00:28:16.728Z,335.96
2022-12-24T00:29:16.821Z,336.65
2022-12-24T00:30:17.018Z,342.62
2022-12-24T00:31:17.207Z,344.79
2022-12-24T00:32:17.236Z,344.79
2022-12-24T00:33:22.655Z,347.34
2022-12-24T00:34:18.570Z,340.85
2022-12-24T00:35:17.612Z,341.55
2022-12-24T00:36:17.776Z,337.34
2022-12-24T00:37:17.862Z,335.96
2022-12-24T00:38:18.117Z,339.08
2022-12-24T00:39:18.119Z,334.25
2022-12-24T00:40:18.241Z,331.55
2022-12-24T00:41:18.393Z,325.30
2022-12-24T00:42:18.531Z,322.74
2022-12-24T00:43:18.682Z,315.90
2022-12-24T00:44:18.851Z,310.52
2022-12-24T00:45:18.985Z,305.04
2022-12-24T00:46:19.172Z,301.12
2022-12-24T00:47:19.204Z,298.65
2022-12-24T00:48:19.338Z,299.47
2022-12-24T00:49:19.445Z,295.96
2022-12-24T00:50:19.599Z,293.31
2022-12-24T00:51:19.906Z,290.20
2022-12-24T00:52:19.816Z,288.67
2022-12-24T00:53:20.002Z,286.90
2022-12-24T00:54:20.068Z,285.40
2022-12-24T00:55:20.175Z,284.91
2022-12-24T00:56:20.291Z,286.15
2022-12-24T00:57:20.400Z,284.17
2022-12-24T00:58:20.541Z,283.68
2022-12-24T00:59:20.628Z,283.92
2022-12-24T01:00:20.738Z,283.68
2022-12-24T01:01:21.019Z,288.67
2022-12-24T01:02:21.115Z,290.97
2022-12-24T01:03:21.224Z,297.84
2022-12-24T01:04:21.168Z,297.03
2022-12-24T01:05:21.294Z,297.84
2022-12-24T01:06:21.449Z,297.30
2022-12-24T01:07:21.491Z,299.74
2022-12-24T01:08:21.709Z,300.57
2022-12-24T01:09:21.766Z,300.57
2022-12-24T01:10:21.814Z,301.95
2022-12-24T01:11:21.916Z,303.63
2022-12-24T01:12:22.042Z,303.63
2022-12-24T01:13:22.195Z,301.67
2022-12-24T01:14:22.252Z,298.38
2022-12-24T01:15:22.426Z,300.57
2022-12-24T01:16:22.551Z,300.02
2022-12-24T01:17:22.642Z,299.20
2022-12-24T01:18:22.943Z,295.69
2022-12-24T01:19:22.803Z,294.37
2022-12-24T01:20:22.929Z,294.37
2022-12-24T01:21:23.024Z,292.01
2022-12-24T01:22:23.135Z,293.84
2022-12-24T01:23:23.249Z,291.75
2022-12-24T01:24:23.369Z,288.42
2022-12-24T01:25:23.493Z,288.92
2022-12-24T01:26:23.563Z,287.91
2022-12-24T01:27:23.706Z,286.40
2022-12-24T01:28:23.822Z,286.40
2022-12-24T01:29:23.922Z,288.67
2022-12-24T01:30:24.057Z,289.18
2022-12-24T01:31:24.280Z,287.40
2022-12-24T01:32:24.279Z,287.40
2022-12-24T01:33:24.369Z,289.18
2022-12-24T01:34:24.505Z,287.40
2022-12-24T01:35:24.607Z,287.91
2022-12-24T01:36:24.727Z,283.68
2022-12-24T01:37:24.837Z,283.92
2022-12-24T01:38:25.072Z,282.21
2022-12-24T01:39:25.080Z,279.09
2022-12-24T01:40:25.183Z,278.15
2022-12-24T01:41:25.311Z,278.62
2022-12-24T01:42:25.428Z,279.81
2022-12-24T01:43:25.616Z,277.67
2022-12-24T01:44:31.249Z,278.86
2022-12-24T01:45:26.765Z,278.38
2022-12-24T01:46:25.944Z,276.97
2022-12-24T01:47:25.958Z,276.74
2022-12-24T01:48:26.110Z,275.58
2022-12-24T01:49:26.195Z,272.37
2022-12-24T01:50:26.273Z,271.02
2022-12-24T01:51:26.411Z,271.02
2022-12-24T01:52:26.481Z,269.91
2022-12-24T01:53:26.720Z,267.05
2022-12-24T01:54:26.715Z,266.84
2022-12-24T01:55:26.837Z,265.97
2022-12-24T01:56:26.996Z,261.52
2022-12-24T01:57:27.136Z,259.45
2022-12-24T01:58:27.158Z,256.01
2022-12-24T01:59:27.309Z,255.81
2022-12-24T02:00:27.353Z,256.61
2022-12-24T02:01:27.652Z,256.61
2022-12-24T02:02:27.855Z,257.01
2022-12-24T02:03:27.753Z,257.42
2022-12-24T02:04:28.833Z,255.61
2022-12-24T02:05:27.976Z,254.62
2022-12-24T02:06:28.022Z,253.24
2022-12-24T02:07:28.137Z,252.66
2022-12-24T02:08:28.198Z,252.27
2022-12-24T02:09:28.309Z,252.27
2022-12-24T02:10:28.415Z,251.50
2022-12-24T02:11:28.519Z,249.20
2022-12-24T02:12:28.633Z,249.58
2022-12-24T02:13:28.731Z,250.35
2022-12-24T02:14:28.844Z,249.96
2022-12-24T02:15:28.983Z,251.30
2022-12-24T02:16:29.121Z,246.40
2022-12-24T02:17:29.250Z,243.11
2022-12-24T02:18:29.306Z,236.45
2022-12-24T02:19:29.386Z,227.60
2022-12-24T02:20:29.501Z,214.78
2022-12-24T02:21:29.607Z,196.63
2022-12-24T02:22:29.755Z,176.77
2022-12-24T02:23:29.856Z,155.81
2022-12-24T02:24:29.995Z,138.71
2022-12-24T02:25:30.098Z,124.35
2022-12-24T02:26:30.186Z,113.14
2022-12-24T02:27:30.368Z,103.52
2022-12-24T02:28:30.394Z,96.13
2022-12-24T02:29:30.553Z,91.76
2022-12-24T02:30:30.613Z,86.79
2022-12-24T02:31:30.747Z,82.02
2022-12-24T02:32:30.885Z,78.39
2022-12-24T02:33:30.953Z,75.01
2022-12-24T02:34:31.155Z,72.66
2022-12-24T02:35:31.195Z,70.27
2022-12-24T02:36:31.291Z,68.15
2022-12-24T02:37:31.442Z,66.52
2022-12-24T02:38:31.526Z,65.02
2022-12-24T02:39:31.653Z,63.44
2022-12-24T02:40:31.799Z,62.07
2022-12-24T02:41:31.912Z,60.93
2022-12-24T02:42:32.103Z,60.10
2022-12-24T02:43:32.123Z,59.16
2022-12-24T02:44:32.293Z,58.17
2022-12-24T02:45:32.383Z,57.61
2022-12-24T02:46:32.655Z,56.90
2022-12-24T02:47:34.276Z,56.48
2022-12-24T02:48:32.680Z,55.76
2022-12-24T02:49:32.772Z,55.35
2022-12-24T02:50:32.917Z,54.85
2022-12-24T02:51:32.960Z,54.67
2022-12-24T02:52:33.132Z,53.96
2022-12-24T02:53:33.228Z,53.75
2022-12-24T02:54:33.362Z,53.37
2022-12-24T02:55:33.454Z,53.20
2022-12-24T02:56:33.577Z,52.93
2022-12-24T02:57:33.798Z,52.47
2022-12-24T02:58:33.874Z,52.30
2022-12-24T02:59:34.102Z,51.91
2022-12-24T03:00:34.158Z,51.94
2022-12-24T03:01:34.378Z,51.53
2022-12-24T03:02:34.669Z,51.65
2022-12-24T03:03:34.559Z,51.21
2022-12-24T03:04:34.646Z,51.34
2022-12-24T03:05:34.778Z,51.24
2022-12-24T03:06:34.854Z,51.18
2022-12-24T03:07:34.976Z,51.02
2022-12-24T03:08:35.084Z,50.90
2022-12-24T03:09:35.165Z,50.90
2022-12-24T03:10:35.293Z,50.65
2022-12-24T03:11:35.443Z,50.62
2022-12-24T03:12:35.637Z,50.65
2022-12-24T03:13:35.733Z,50.90
2022-12-24T03:14:35.826Z,50.93
2022-12-24T03:15:36.013Z,50.74
2022-12-24T03:16:36.154Z,50.90
2022-12-24T03:17:36.263Z,50.71
2022-12-24T03:18:36.342Z,51.12
2022-12-24T03:19:36.514Z,51.08
2022-12-24T03:20:36.583Z,51.18
2022-12-24T03:21:36.800Z,51.49
2022-12-24T03:22:36.951Z,51.75
2022-12-24T03:23:36.993Z,51.69
2022-12-24T03:24:37.201Z,51.62
2022-12-24T03:25:37.298Z,51.88
2022-12-24T03:26:37.400Z,51.78
2022-12-24T03:27:37.597Z,51.81
2022-12-24T03:28:37.599Z,52.14
2022-12-24T03:29:37.750Z,52.27
2022-12-24T03:30:37.838Z,52.27
2022-12-24T03:31:37.997Z,52.56
2022-12-24T03:32:38.113Z,52.50
2022-12-24T03:33:38.237Z,52.37
2022-12-24T03:34:38.941Z,52.43
2022-12-24T03:35:38.374Z,52.30
2022-12-24T03:36:38.486Z,52.53
2022-12-24T03:37:38.661Z,52.70
2022-12-24T03:38:38.755Z,52.60
2022-12-24T03:39:38.791Z,52.63
2022-12-24T03:40:38.968Z,52.80
2022-12-24T03:41:39.080Z,52.76
2022-12-24T03:42:39.224Z,53.03
2022-12-24T03:43:39.323Z,52.93
2022-12-24T03:44:39.423Z,53.07
2022-12-24T03:45:39.604Z,53.03
2022-12-24T03:46:39.708Z,53.24
2022-12-24T03:47:39.803Z,53.03
2022-12-24T03:48:39.888Z,53.10
2022-12-24T03:49:39.984Z,53.03
2022-12-24T03:50:40.084Z,53.07
2022-12-24T03:51:40.252Z,53.17
2022-12-24T03:52:40.369Z,53.24
2022-12-24T03:53:40.452Z,53.10
2022-12-24T03:54:40.601Z,53.00
2022-12-24T03:55:40.695Z,52.97
2022-12-24T03:56:40.842Z,52.86
2022-12-24T03:57:40.970Z,52.86
2022-12-24T03:58:41.076Z,52.93
2022-12-24T03:59:41.168Z,53.00
2022-12-24T04:00:41.320Z,53.07
2022-12-24T04:01:41.567Z,52.73
2022-12-24T04:02:41.700Z,52.73
2022-12-24T04:03:41.680Z,52.93
2022-12-24T04:04:41.818Z,52.66
2022-12-24T04:05:41.896Z,52.86
2022-12-24T04:06:41.972Z,52.70
2022-12-24T04:07:42.144Z,52.50
2022-12-24T04:08:42.214Z,52.60
2022-12-24T04:09:42.385Z,52.56
2022-12-24T04:10:42.478Z,52.47
2022-12-24T04:11:42.617Z,52.40
2022-12-24T04:12:42.750Z,52.33
2022-12-24T04:13:42.885Z,52.07
2022-12-24T04:14:42.966Z,52.30
2022-12-24T04:15:43.092Z,52.07
2022-12-24T04:16:43.318Z,52.01
2022-12-24T04:17:43.317Z,52.04
2022-12-24T04:18:43.423Z,51.72
2022-12-24T04:19:43.525Z,51.69
2022-12-24T04:20:43.618Z,51.56
2022-12-24T04:21:43.766Z,51.30
2022-12-24T04:22:43.961Z,51.40
2022-12-24T04:23:43.985Z,51.15
2022-12-24T04:24:44.236Z,51.12
2022-12-24T04:25:44.319Z,51.02
2022-12-24T04:26:44.484Z,51.05
2022-12-24T04:27:44.594Z,51.02
2022-12-24T04:28:44.715Z,50.80
2022-12-24T04:29:44.799Z,50.80
2022-12-24T04:30:44.925Z,50.71
2022-12-24T04:31:45.077Z,50.53
2022-12-24T04:32:45.161Z,50.40
2022-12-24T04:33:45.314Z,50.25
2022-12-24T04:34:45.388Z,50.28
2022-12-24T04:35:45.493Z,50.01
2022-12-24T04:36:45.575Z,50.25
2022-12-24T04:37:45.750Z,50.10
2022-12-24T04:38:45.881Z,49.95
2022-12-24T04:39:45.972Z,50.10
2022-12-24T04:40:46.121Z,49.89
2022-12-24T04:41:46.244Z,49.86
2022-12-24T04:42:46.340Z,49.69
2022-12-24T04:43:46.445Z,49.92
2022-12-24T04:44:46.595Z,49.86
2022-12-24T04:45:46.740Z,49.65
2022-12-24T04:46:46.892Z,49.54
2022-12-24T04:47:46.989Z,49.71
2022-12-24T04:48:47.096Z,49.42
2022-12-24T04:49:47.292Z,49.60
2022-12-24T04:50:47.329Z,49.42
2022-12-24T04:51:47.488Z,49.33
2022-12-24T04:52:47.542Z,49.48
2022-12-24T04:53:47.672Z,49.45
2022-12-24T04:54:47.753Z,49.33
2022-12-24T04:55:47.883Z,49.22
2022-12-24T04:56:47.967Z,49.42
2022-12-24T04:57:52.745Z,49.24
2022-12-24T04:58:49.233Z,49.16
2022-12-24T04:59:48.358Z,49.24
2022-12-24T05:00:48.505Z,49.30
2022-12-24T05:01:48.738Z,49.10
2022-12-24T05:02:48.885Z,49.22
2022-12-24T05:03:48.816Z,49.16
2022-12-24T05:04:48.948Z,49.10
2022-12-24T05:05:49.064Z,49.19
2022-12-24T05:06:49.215Z,49.30
2022-12-24T05:07:49.275Z,49.01
2022-12-24T05:08:49.396Z,48.90
2022-12-24T05:09:49.544Z,49.07
2022-12-24T05:10:50.634Z,49.07
2022-12-24T05:11:49.790Z,48.99
2022-12-24T05:12:49.863Z,49.01
2022-12-24T05:13:49.993Z,48.96
2022-12-24T05:14:50.233Z,48.76
2022-12-24T05:15:50.243Z,48.90
2022-12-24T05:16:50.474Z,48.76
2022-12-24T05:17:50.472Z,49.13
2022-12-24T05:18:50.600Z,49.01
2022-12-24T05:19:50.664Z,49.01
2022-12-24T05:20:50.807Z,48.76
2022-12-24T05:21:51.079Z,48.67
2022-12-24T05:22:51.101Z,48.70
2022-12-24T05:23:51.231Z,48.58
2022-12-24T05:24:51.329Z,48.81
2022-12-24T05:25:51.467Z,48.81
2022-12-24T05:26:51.693Z,48.73
2022-12-24T05:27:51.766Z,48.73
2022-12-24T05:28:51.820Z,48.70
2022-12-24T05:29:51.972Z,48.33
2022-12-24T05:30:52.154Z,48.56
2022-12-24T05:31:52.405Z,48.70
2022-12-24T05:32:52.380Z,48.53
2022-12-24T05:33:52.529Z,48.56
2022-12-24T05:34:53.607Z,48.47
2022-12-24T05:35:52.751Z,48.58
2022-12-24T05:36:52.917Z,48.39
2022-12-24T05:37:52.996Z,48.44
2022-12-24T05:38:53.174Z,48.53
2022-12-24T05:39:53.263Z,48.42
2022-12-24T05:40:53.346Z,48.36
2022-12-24T05:41:53.543Z,48.42
2022-12-24T05:42:53.630Z,48.47
2022-12-24T05:43:53.784Z,48.33
2022-12-24T05:44:53.929Z,48.30
2022-12-24T05:45:54.022Z,48.67
2022-12-24T05:46:54.260Z,48.47
2022-12-24T05:47:54.299Z,48.44
2022-12-24T05:48:54.393Z,48.44
2022-12-24T05:49:54.515Z,48.42
2022-12-24T05:50:54.674Z,48.33
2022-12-24T05:51:54.896Z,48.47
2022-12-24T05:52:54.942Z,48.42
2022-12-24T05:53:55.035Z,48.64
2022-12-24T05:54:55.178Z,48.76
2022-12-24T05:55:55.347Z,48.81
2022-12-24T05:56:55.483Z,48.81
2022-12-24T05:57:55.573Z,48.93
2022-12-24T05:58:55.693Z,48.84
2022-12-24T05:59:55.798Z,48.99
2022-12-24T06:00:55.980Z,49.27
2022-12-24T06:01:56.136Z,49.42
2022-12-24T06:02:56.282Z,49.36
2022-12-24T06:03:56.279Z,49.63
2022-12-24T06:04:56.436Z,49.80
2022-12-24T06:05:56.461Z,50.01
2022-12-24T06:06:56.612Z,50.44
2022-12-24T06:07:56.764Z,50.74
2022-12-24T06:08:56.910Z,50.93
2022-12-24T06:09:56.961Z,51.30
2022-12-24T06:10:57.573Z,51.72
2022-12-24T06:11:57.218Z,51.78
2022-12-24T06:12:57.304Z,52.20
2022-12-24T06:13:57.449Z,52.43
2022-12-24T06:14:57.569Z,53.10
2022-12-24T06:15:57.765Z,53.82
2022-12-24T06:16:57.800Z,54.38
2022-12-24T06:17:57.898Z,54.70
2022-12-24T06:18:58.026Z,54.56
2022-12-24T06:19:58.123Z,54.88
2022-12-24T06:20:58.275Z,54.85
2022-12-24T06:21:58.586Z,55.03
2022-12-24T06:22:58.511Z,55.50
2022-12-24T06:23:58.608Z,55.87
2022-12-24T06:24:58.747Z,56.75
2022-12-24T06:25:58.888Z,57.37
2022-12-24T06:26:59.098Z,57.49
2022-12-24T06:27:59.151Z,57.69
2022-12-24T06:28:59.239Z,57.97
2022-12-24T06:29:59.356Z,58.01
2022-12-24T06:31:02.958Z,58.29
2022-12-24T06:31:59.700Z,59.08
2022-12-24T06:32:59.713Z,60.40
2022-12-24T06:33:59.808Z,61.07
2022-12-24T06:34:59.995Z,62.34
2022-12-24T06:36:00.103Z,64.41
2022-12-24T06:37:00.265Z,66.31
2022-12-24T06:38:00.380Z,66.95
2022-12-24T06:39:00.552Z,66.73
2022-12-24T06:40:00.612Z,66.79
2022-12-24T06:41:00.752Z,67.54
2022-12-24T06:42:00.858Z,68.15
2022-12-24T06:43:00.972Z,68.77
2022-12-24T06:44:01.064Z,68.88
2022-12-24T06:45:07.799Z,69.45
2022-12-24T06:46:03.284Z,71.11
2022-12-24T06:47:01.562Z,72.22
2022-12-24T06:48:01.486Z,72.85
2022-12-24T06:49:01.629Z,71.91
2022-12-24T06:50:01.707Z,71.17
2022-12-24T06:51:01.851Z,70.69
2022-12-24T06:52:02.024Z,69.92
2022-12-24T06:53:02.116Z,71.66
2022-12-24T06:54:02.218Z,72.66
2022-12-24T06:55:02.339Z,73.23
2022-12-24T06:56:02.529Z,72.60
2022-12-24T06:57:02.610Z,71.29
2022-12-24T06:58:02.759Z,70.21
2022-12-24T06:59:05.443Z,69.45
2022-12-24T07:00:02.996Z,69.00
2022-12-24T07:01:03.177Z,68.26
2022-12-24T07:02:03.298Z,68.77
2022-12-24T07:03:03.314Z,68.94
2022-12-24T07:04:03.467Z,69.05
2022-12-24T07:05:03.575Z,70.51
2022-12-24T07:06:03.752Z,72.16
2022-12-24T07:07:03.778Z,72.22
2022-12-24T07:08:03.878Z,72.79
2022-12-24T07:09:03.989Z,73.95
2022-12-24T07:10:04.066Z,74.34
2022-12-24T07:11:04.210Z,74.74
2022-12-24T07:12:04.398Z,74.61
2022-12-24T07:13:04.593Z,74.74
2022-12-24T07:14:04.584Z,74.81
2022-12-24T07:15:04.743Z,73.88
2022-12-24T07:16:04.994Z,72.66
2022-12-24T07:17:05.162Z,72.66
2022-12-24T07:18:05.095Z,72.28
2022-12-24T07:19:05.234Z,72.10
2022-12-24T07:20:05.328Z,71.85
2022-12-24T07:21:05.494Z,71.66
2022-12-24T07:22:09.042Z,72.66
2022-12-24T07:23:06.796Z,73.82
2022-12-24T07:24:05.884Z,74.74
2022-12-24T07:25:05.988Z,74.54
2022-12-24T07:26:06.073Z,74.21
2022-12-24T07:27:06.232Z,73.69
2022-12-24T07:28:06.294Z,74.14
2022-12-24T07:29:06.392Z,75.28
2022-12-24T07:30:06.537Z,77.74
2022-12-24T07:31:06.667Z,79.97
2022-12-24T07:32:06.789Z,81.46
2022-12-24T07:33:06.904Z,83.00
2022-12-24T07:34:06.980Z,85.29
2022-12-24T07:35:07.130Z,86.70
2022-12-24T07:36:07.299Z,87.07
2022-12-24T07:37:07.533Z,86.26
2022-12-24T07:38:07.481Z,87.52
2022-12-24T07:39:07.635Z,88.08
2022-12-24T07:40:07.663Z,88.92
2022-12-24T07:41:07.773Z,90.56
2022-12-24T07:42:07.929Z,90.86
2022-12-24T07:43:08.104Z,93.40
2022-12-24T07:44:08.106Z,95.21
2022-12-24T07:45:08.279Z,94.49
2022-12-24T07:46:08.317Z,94.82
2022-12-24T07:47:08.573Z,95.43
2022-12-24T07:48:08.534Z,93.09
2022-12-24T07:49:08.649Z,93.51
2022-12-24T07:50:08.740Z,93.30
2022-12-24T07:51:08.837Z,95.10
2022-12-24T07:52:09.005Z,96.46
2022-12-24T07:53:09.048Z,94.87
2022-12-24T07:54:09.259Z,90.56
2022-12-24T07:55:09.296Z,84.94
2022-12-24T07:56:12.857Z,80.36
2022-12-24T07:57:09.605Z,76.95
2022-12-24T07:58:09.659Z,73.04
2022-12-24T07:59:09.808Z,70.39
2022-12-24T08:00:09.949Z,67.65
2022-12-24T08:01:10.068Z,65.63
2022-12-24T08:02:17.568Z,63.77
2022-12-24T08:03:11.416Z,61.84
2022-12-24T08:04:10.478Z,60.62
2022-12-24T08:05:10.442Z,59.20
2022-12-24T08:06:10.553Z,58.13
2022-12-24T08:07:10.703Z,57.33
2022-12-24T08:08:10.796Z,56.79
2022-12-24T08:09:10.854Z,56.29
2022-12-24T08:10:10.941Z,55.99
2022-12-24T08:11:11.087Z,55.91
2022-12-24T08:12:11.203Z,55.80
2022-12-24T08:13:11.300Z,55.72
2022-12-24T08:14:11.397Z,55.54
2022-12-24T08:15:11.608Z,55.24
2022-12-24T08:16:11.741Z,55.06
2022-12-24T08:17:11.863Z,54.92
2022-12-24T08:18:11.984Z,54.81
2022-12-24T08:19:12.039Z,54.99
2022-12-24T08:20:12.307Z,55.13
2022-12-24T08:21:12.261Z,55.50
2022-12-24T08:22:12.582Z,56.44
2022-12-24T08:23:12.516Z,57.53
2022-12-24T08:24:12.688Z,57.93
2022-12-24T08:25:12.836Z,58.62
2022-12-24T08:26:12.971Z,59.58
2022-12-24T08:27:13.068Z,60.19
2022-12-24T08:28:13.198Z,60.27
2022-12-24T08:29:13.384Z,61.38
2022-12-24T08:30:19.009Z,63.39
2022-12-24T08:31:14.540Z,64.97
2022-12-24T08:32:13.632Z,67.65
2022-12-24T08:33:13.773Z,69.63
2022-12-24T08:34:13.803Z,70.75
2022-12-24T08:35:13.983Z,73.36
2022-12-24T08:36:14.074Z,77.02
2022-12-24T08:37:14.254Z,77.81
2022-12-24T08:38:14.328Z,80.20
2022-12-24T08:39:14.394Z,82.50
2022-12-24T08:40:14.535Z,84.51
2022-12-24T08:41:14.676Z,86.89
2022-12-24T08:42:14.839Z,90.17
2022-12-24T08:43:14.811Z,92.57
2022-12-24T08:44:15.010Z,93.40
2022-12-24T08:45:15.131Z,95.87
2022-12-24T08:46:15.253Z,94.01
2022-12-24T08:47:15.443Z,95.87
2022-12-24T08:48:15.485Z,94.14
2022-12-24T08:49:15.572Z,91.96
2022-12-24T08:50:15.736Z,92.68
2022-12-24T08:51:15.824Z,93.51
2022-12-24T08:52:16.109Z,96.07
2022-12-24T08:53:16.124Z,99.63
2022-12-24T08:54:16.263Z,101.01
2022-12-24T08:55:16.334Z,104.56
2022-12-24T08:56:16.432Z,105.75
2022-12-24T08:57:16.552Z,105.75
2022-12-24T08:58:16.629Z,104.69
2022-12-24T08:59:16.784Z,104.36
2022-12-24T09:00:17.041Z,106.29
2022-12-24T09:01:17.176Z,108.50
2022-12-24T09:02:17.305Z,113.44
2022-12-24T09:03:22.124Z,115.48
2022-12-24T09:04:18.334Z,117.11
2022-12-24T09:05:17.475Z,121.10
2022-12-24T09:06:19.020Z,126.23
2022-12-24T09:07:17.656Z,128.66
2022-12-24T09:08:17.755Z,129.16
2022-12-24T09:09:17.866Z,132.44
2022-12-24T09:10:18.008Z,136.00
2022-12-24T09:11:18.107Z,134.47
2022-12-24T09:12:18.236Z,134.79
2022-12-24T09:13:18.376Z,134.04
2022-12-24T09:14:18.471Z,133.39
2022-12-24T09:15:18.588Z,135.23
2022-12-24T09:16:18.719Z,136.00
2022-12-24T09:17:18.814Z,138.37
2022-12-24T09:18:18.973Z,138.60
2022-12-24T09:19:19.010Z,141.30
2022-12-24T09:20:19.104Z,143.49
2022-12-24T09:21:19.214Z,144.73
2022-12-24T09:22:19.379Z,145.62
2022-12-24T09:23:19.433Z,148.07
2022-12-24T09:24:19.523Z,149.93
2022-12-24T09:25:19.645Z,152.54
2022-12-24T09:26:19.743Z,155.09
2022-12-24T09:27:19.862Z,155.09
2022-12-24T09:28:19.992Z,154.37
2022-12-24T09:29:20.092Z,154.94
2022-12-24T09:30:20.199Z,154.80
2022-12-24T09:31:20.368Z,158.18
2022-12-24T09:32:20.443Z,160.30
2022-12-24T09:33:20.521Z,160.92
2022-12-24T09:34:25.152Z,161.54
2022-12-24T09:35:21.754Z,162.96
2022-12-24T09:36:20.878Z,163.92
2022-12-24T09:37:20.968Z,164.90
2022-12-24T09:38:21.067Z,166.04
2022-12-24T09:39:21.186Z,168.39
2022-12-24T09:40:21.398Z,168.56
2022-12-24T09:41:21.448Z,167.54
2022-12-24T09:42:21.589Z,163.28
2022-12-24T09:43:21.668Z,165.22
2022-12-24T09:44:21.767Z,166.71
2022-12-24T09:45:21.903Z,168.56
2022-12-24T09:46:22.138Z,168.39
2022-12-24T09:47:22.134Z,171.68
2022-12-24T09:48:22.277Z,173.83
2022-12-24T09:49:22.393Z,172.93
2022-12-24T09:50:22.554Z,174.92
2022-12-24T09:51:22.645Z,178.09
2022-12-24T09:52:22.723Z,179.43
2022-12-24T09:53:22.871Z,181.98
2022-12-24T09:54:22.931Z,182.38
2022-12-24T09:55:23.045Z,181.98
2022-12-24T09:56:23.168Z,179.63
2022-12-24T09:57:23.280Z,179.82
2022-12-24T09:58:23.364Z,180.40
2022-12-24T09:59:23.495Z,179.24
2022-12-24T10:00:23.595Z,176.21
2022-12-24T10:01:23.785Z,173.11
2022-12-24T10:02:24.046Z,177.34
2022-12-24T10:03:24.022Z,180.80
2022-12-24T10:04:24.092Z,181.58
2022-12-24T10:05:24.205Z,182.98
2022-12-24T10:06:29.074Z,184.80
2022-12-24T10:07:25.409Z,186.47
2022-12-24T10:08:24.494Z,188.07
2022-12-24T10:09:24.623Z,187.96
2022-12-24T10:10:24.765Z,191.25
2022-12-24T10:11:24.864Z,196.05
2022-12-24T10:12:24.997Z,196.16
2022-12-24T10:13:25.052Z,197.70
2022-12-24T10:14:25.171Z,198.18
2022-12-24T10:15:25.290Z,201.46
2022-12-24T10:16:25.540Z,207.45
2022-12-24T10:17:25.600Z,212.01
2022-12-24T10:18:25.620Z,215.91
2022-12-24T10:19:25.750Z,215.49
2022-12-24T10:20:25.837Z,218.07
2022-12-24T10:21:26.049Z,218.79
2022-12-24T10:22:26.083Z,218.36
2022-12-24T10:23:26.168Z,216.49
2022-12-24T10:24:26.292Z,213.11
2022-12-24T10:25:26.388Z,212.56
2022-12-24T10:26:26.551Z,210.92
2022-12-24T10:27:26.638Z,210.65
2022-12-24T10:28:26.817Z,211.33
2022-12-24T10:29:26.966Z,214.50
2022-12-24T10:30:27.113Z,214.50
2022-12-24T10:31:27.282Z,215.35
2022-12-24T10:32:27.364Z,214.22
2022-12-24T10:33:27.412Z,212.56
2022-12-24T10:34:27.587Z,210.78
2022-12-24T10:35:27.654Z,210.92
2022-12-24T10:36:27.805Z,211.33
2022-12-24T10:37:27.998Z,206.80
2022-12-24T10:38:28.084Z,203.34
2022-12-24T10:39:28.180Z,203.34
2022-12-24T10:40:28.304Z,204.35
2022-12-24T10:41:28.516Z,201.34
2022-12-24T10:42:28.612Z,202.21
2022-12-24T10:43:28.701Z,202.09
2022-12-24T10:44:28.852Z,203.59
2022-12-24T10:45:28.967Z,202.96
2022-12-24T10:46:29.206Z,200.11
2022-12-24T10:47:29.248Z,197.94
2022-12-24T10:48:29.318Z,191.47
2022-12-24T10:49:29.445Z,191.92
2022-12-24T10:50:29.583Z,193.28
2022-12-24T10:51:29.780Z,190.69
2022-12-24T10:52:29.863Z,190.36
2022-12-24T10:53:30.017Z,186.47
2022-12-24T10:54:30.109Z,185.31
2022-12-24T10:55:30.280Z,186.68
2022-12-24T10:56:30.415Z,187.96
2022-12-24T10:57:30.571Z,189.59
2022-12-24T10:58:30.618Z,189.26
2022-12-24T10:59:30.749Z,191.02
2022-12-24T11:00:35.813Z,192.14
2022-12-24T11:01:32.752Z,193.62
2022-12-24T11:02:31.331Z,195.70
2022-12-24T11:03:31.460Z,201.84
2022-12-24T11:04:31.448Z,197.11
2022-12-24T11:05:31.528Z,194.65
2022-12-24T11:06:31.678Z,199.63
2022-12-24T11:07:31.883Z,204.86
2022-12-24T11:08:31.933Z,207.32
2022-12-24T11:09:32.033Z,207.19
2022-12-24T11:10:32.243Z,205.89
2022-12-24T11:11:32.307Z,209.84
2022-12-24T11:12:32.394Z,212.01
2022-12-24T11:13:37.989Z,210.65
2022-12-24T11:14:33.635Z,212.83
2022-12-24T11:15:32.866Z,212.97
2022-12-24T11:16:32.910Z,211.33
2022-12-24T11:17:33.008Z,213.25
2022-12-24T11:18:33.141Z,215.77
2022-12-24T11:19:33.300Z,212.56
2022-12-24T11:20:33.439Z,215.77
2022-12-24T11:21:33.714Z,216.91
2022-12-24T11:22:33.684Z,212.56
2022-12-24T11:23:33.827Z,212.97
2022-12-24T11:24:33.959Z,217.06
2022-12-24T11:25:34.070Z,213.94
2022-12-24T11:26:34.251Z,212.70
2022-12-24T11:27:34.327Z,217.06
2022-12-24T11:28:34.465Z,219.53
2022-12-24T11:29:34.599Z,217.06
2022-12-24T11:30:34.733Z,220.12
2022-12-24T11:31:34.976Z,219.23
2022-12-24T11:32:34.994Z,224.79
2022-12-24T11:33:35.099Z,224.94
2022-12-24T11:34:35.280Z,228.39
2022-12-24T11:35:35.383Z,227.76
2022-12-24T11:36:35.502Z,230.48
2022-12-24T11:37:35.661Z,238.86
2022-12-24T11:38:35.789Z,241.32
2022-12-24T11:39:35.913Z,237.48
2022-12-24T11:40:37.552Z,236.28
2022-12-24T11:41:36.235Z,235.44
2022-12-24T11:42:36.288Z,232.27
2022-12-24T11:43:36.382Z,230.48
2022-12-24T11:44:36.540Z,230.15
2022-12-24T11:45:36.690Z,233.59
2022-12-24T11:46:36.891Z,235.44
2022-12-24T11:47:36.891Z,234.43
2022-12-24T11:48:36.998Z,236.28
2022-12-24T11:49:37.181Z,236.79
2022-12-24T11:50:37.305Z,239.74
2022-12-24T11:51:37.485Z,239.21
2022-12-24T11:52:37.561Z,241.50
2022-12-24T11:53:37.669Z,238.00
2022-12-24T11:54:37.871Z,235.94
2022-12-24T11:55:37.918Z,232.10
2022-12-24T11:56:38.065Z,233.93
2022-12-24T11:57:38.220Z,235.27
2022-12-24T11:58:38.347Z,230.80
2022-12-24T11:59:38.417Z,236.97
2022-12-24T12:00:38.667Z,245.66
2022-12-24T12:01:38.758Z,245.66
2022-12-24T12:02:38.909Z,254.82
2022-12-24T12:03:38.958Z,264.05
2022-12-24T12:04:39.099Z,271.25
2022-12-24T12:05:39.219Z,271.70
2022-12-24T12:06:39.342Z,275.58
2022-12-24T12:07:39.752Z,276.51
2022-12-24T12:08:39.604Z,276.51
2022-12-24T12:09:39.736Z,278.86
2022-12-24T12:10:39.887Z,275.81
2022-12-24T12:11:40.031Z,284.42
2022-12-24T12:12:40.200Z,292.27
2022-12-24T12:13:40.309Z,293.05
2022-12-24T12:14:40.453Z,295.16
2022-12-24T12:15:40.551Z,298.92
2022-12-24T12:16:40.820Z,306.18
2022-12-24T12:17:40.848Z,310.82
2022-12-24T12:18:40.921Z,314.69
2022-12-24T12:19:41.052Z,318.05
2022-12-24T12:20:41.203Z,321.48
2022-12-24T12:21:41.379Z,334.93
2022-12-24T12:22:41.507Z,345.15
2022-12-24T12:23:41.594Z,351.43
2022-12-24T12:24:41.748Z,352.19
2022-12-24T12:25:41.910Z,357.95
2022-12-24T12:26:42.020Z,360.70
2022-12-24T12:27:42.136Z,368.40
2022-12-24T12:28:42.299Z,373.43
2022-12-24T12:29:42.395Z,373.43
2022-12-24T12:30:42.527Z,381.05
2022-12-24T12:31:42.795Z,399.06
2022-12-24T12:32:42.842Z,413.41
2022-12-24T12:33:42.935Z,429.38
2022-12-24T12:34:43.069Z,438.71
2022-12-24T12:35:43.210Z,447.84
2022-12-24T12:36:43.362Z,458.62
2022-12-24T12:37:43.574Z,459.25
2022-12-24T12:38:43.625Z,449.65
2022-12-24T12:39:43.778Z,456.42
2022-12-24T12:40:44.007Z,468.61
2022-12-24T12:41:44.002Z,470.26